createdAt,value
2022-09-03T00:02:09.547Z,37.00
2022-09-03T00:04:46.822Z,36.90
2022-09-03T00:07:22.494Z,37.00
2022-09-03T00:09:58.331Z,36.90
2022-09-03T00:12:34.174Z,36.90
2022-09-03T00:15:08.309Z,36.90
2022-09-03T00:17:41.787Z,36.90
2022-09-03T00:20:18.954Z,36.90
2022-09-03T00:22:52.870Z,37.00
2022-09-03T00:25:28.527Z,37.00
2022-09-03T00:28:03.982Z,37.00
2022-09-03T00:30:34.936Z,37.10
2022-09-03T00:33:10.746Z,37.10
2022-09-03T00:35:48.014Z,37.20
2022-09-03T00:38:17.464Z,37.20
2022-09-03T00:41:11.262Z,37.20
2022-09-03T00:43:58.975Z,37.40
2022-09-03T00:46:40.982Z,37.50
2022-09-03T00:49:33.178Z,37.40
2022-09-03T00:52:14.025Z,37.50
2022-09-03T00:54:51.198Z,37.40
2022-09-03T00:57:36.935Z,37.40
2022-09-03T01:00:11.648Z,37.50
2022-09-03T01:02:58.909Z,37.50
2022-09-03T01:05:45.540Z,37.50
2022-09-03T01:08:37.241Z,37.50
2022-09-03T01:11:21.723Z,37.50
2022-09-03T01:14:00.338Z,37.50
2022-09-03T01:16:41.631Z,37.50
2022-09-03T01:19:40.209Z,38.20
2022-09-03T01:22:46.209Z,37.60
2022-09-03T01:25:19.108Z,37.70
2022-09-03T01:28:03.304Z,37.50
2022-09-03T01:30:39.364Z,37.70
2022-09-03T01:33:15.804Z,37.70
2022-09-03T01:35:51.442Z,37.60
2022-09-03T01:38:32.173Z,37.80
2022-09-03T01:41:30.545Z,37.80
2022-09-03T01:44:12.009Z,37.90
2022-09-03T01:46:45.844Z,37.80
2022-09-03T01:49:22.869Z,37.70
2022-09-03T01:52:03.993Z,37.90
2022-09-03T01:54:53.406Z,38.00
2022-09-03T01:57:47.759Z,37.90
2022-09-03T02:00:20.900Z,37.90
2022-09-03T02:02:52.976Z,38.50
2022-09-03T02:05:24.915Z,37.90
2022-09-03T02:08:01.421Z,37.90
2022-09-03T02:10:36.066Z,38.00
2022-09-03T02:13:11.821Z,38.00
2022-09-03T02:15:46.366Z,38.00
2022-09-03T02:18:21.058Z,38.00
2022-09-03T02:20:51.496Z,38.10
2022-09-03T02:23:27.547Z,38.00
2022-09-03T02:26:00.930Z,38.00
2022-09-03T02:28:32.539Z,38.10
2022-09-03T02:31:04.098Z,38.10
2022-09-03T02:33:37.597Z,38.20
2022-09-03T02:36:10.232Z,38.10
2022-09-03T02:38:40.745Z,38.20
2022-09-03T02:41:15.592Z,38.10
2022-09-03T02:43:50.887Z,38.10
2022-09-03T02:46:27.082Z,38.10
2022-09-03T02:48:57.286Z,38.10
2022-09-03T02:51:27.146Z,38.10
2022-09-03T02:53:57.277Z,38.10
2022-09-03T02:56:28.031Z,38.00
2022-09-03T02:58:58.377Z,38.10
2022-09-03T03:01:29.273Z,38.10
2022-09-03T03:04:01.920Z,38.10
2022-09-03T03:06:33.700Z,38.00
2022-09-03T03:09:05.934Z,38.10
2022-09-03T03:11:37.202Z,38.10
2022-09-03T03:14:10.831Z,38.10
2022-09-03T03:16:42.413Z,38.10
2022-09-03T03:19:11.315Z,38.80
2022-09-03T03:21:40.863Z,38.10
2022-09-03T03:24:10.410Z,38.20
2022-09-03T03:26:40.211Z,38.10
2022-09-03T03:29:09.187Z,38.10
2022-09-03T03:31:44.842Z,38.10
2022-09-03T03:34:14.418Z,38.10
2022-09-03T03:36:43.236Z,38.10
2022-09-03T03:39:12.379Z,38.10
2022-09-03T03:41:41.513Z,38.10
2022-09-03T03:44:10.653Z,38.20
2022-09-03T03:46:42.321Z,38.30
2022-09-03T03:49:12.993Z,38.20
2022-09-03T03:51:44.251Z,38.20
2022-09-03T03:54:17.449Z,38.20
2022-09-03T03:56:55.360Z,38.20
2022-09-03T03:59:26.326Z,38.30
2022-09-03T04:01:57.253Z,38.30
2022-09-03T04:04:27.627Z,38.30
2022-09-03T04:06:57.372Z,38.30
2022-09-03T04:09:26.509Z,38.30
2022-09-03T04:11:58.085Z,38.30
2022-09-03T04:14:28.563Z,38.60
2022-09-03T04:16:58.175Z,38.70
2022-09-03T04:19:29.707Z,38.70
2022-09-03T04:22:00.116Z,38.80
2022-09-03T04:24:28.962Z,38.90
2022-09-03T04:26:59.266Z,38.80
2022-09-03T04:29:31.231Z,38.80
2022-09-03T04:32:17.388Z,38.90
2022-09-03T04:34:50.998Z,39.00
2022-09-03T04:37:20.823Z,39.20
2022-09-03T04:39:49.643Z,39.30
2022-09-03T04:42:18.629Z,39.40
2022-09-03T04:44:47.708Z,39.40
2022-09-03T04:47:16.665Z,39.50
2022-09-03T04:49:47.762Z,39.70
2022-09-03T04:52:16.563Z,39.80
2022-09-03T04:54:45.365Z,39.80
2022-09-03T04:57:14.308Z,39.90
2022-09-03T04:59:43.690Z,40.00
2022-09-03T05:02:13.049Z,40.00
2022-09-03T05:04:41.912Z,40.20
2022-09-03T05:07:12.357Z,40.30
2022-09-03T05:09:41.084Z,40.50
2022-09-03T05:12:11.109Z,40.40
2022-09-03T05:14:39.993Z,40.50
2022-09-03T05:17:08.771Z,40.50
2022-09-03T05:19:37.938Z,40.50
2022-09-03T05:22:08.113Z,40.50
2022-09-03T05:24:38.690Z,40.50
2022-09-03T05:27:07.854Z,40.50
2022-09-03T05:29:36.581Z,40.50
2022-09-03T05:32:06.876Z,40.50
2022-09-03T05:34:36.136Z,40.50
2022-09-03T05:37:04.955Z,40.50
2022-09-03T05:39:33.735Z,40.50
2022-09-03T05:42:04.307Z,40.50
2022-09-03T05:44:33.477Z,40.60
2022-09-03T05:47:02.320Z,40.50
2022-09-03T05:49:34.062Z,40.70
2022-09-03T05:52:03.315Z,40.70
2022-09-03T05:54:32.187Z,40.90
2022-09-03T05:57:01.368Z,40.90
2022-09-03T05:59:32.434Z,40.90
2022-09-03T06:02:01.319Z,40.90
2022-09-03T06:04:30.564Z,40.90
2022-09-03T06:06:59.359Z,41.00
2022-09-03T06:09:28.244Z,41.10
2022-09-03T06:11:57.252Z,41.20
2022-09-03T06:14:25.996Z,41.20
2022-09-03T06:16:57.079Z,41.30
2022-09-03T06:19:25.838Z,41.50
2022-09-03T06:21:55.377Z,41.60
2022-09-03T06:24:28.127Z,41.60
2022-09-03T06:26:57.850Z,41.60
2022-09-03T06:29:27.114Z,41.70
2022-09-03T06:31:57.269Z,41.70
2022-09-03T06:34:26.862Z,41.80
2022-09-03T06:36:55.492Z,41.80
2022-09-03T06:39:25.542Z,41.80
2022-09-03T06:41:55.142Z,41.90
2022-09-03T06:44:30.862Z,42.10
2022-09-03T06:47:01.594Z,42.10
2022-09-03T06:49:31.916Z,42.30
2022-09-03T06:52:00.683Z,42.20
2022-09-03T06:54:29.612Z,42.20
2022-09-03T06:56:58.627Z,42.30
2022-09-03T06:59:28.426Z,42.40
2022-09-03T07:02:03.003Z,42.50
2022-09-03T07:04:34.927Z,42.50
2022-09-03T07:07:04.851Z,42.50
2022-09-03T07:09:36.356Z,42.50
2022-09-03T07:12:06.778Z,42.50
2022-09-03T07:14:35.543Z,42.60
2022-09-03T07:17:04.302Z,42.70
2022-09-03T07:19:34.625Z,42.80
2022-09-03T07:22:03.248Z,42.90
2022-09-03T07:24:31.899Z,42.90
2022-09-03T07:27:00.543Z,42.90
2022-09-03T07:29:29.430Z,42.70
2022-09-03T07:31:58.027Z,42.70
2022-09-03T07:34:27.137Z,42.60
2022-09-03T07:36:57.441Z,42.60
2022-09-03T07:39:26.365Z,42.70
2022-09-03T07:41:58.401Z,42.60
2022-09-03T07:44:30.047Z,42.60
2022-09-03T07:46:58.727Z,42.70
2022-09-03T07:49:27.825Z,42.70
2022-09-03T07:51:59.012Z,42.70
2022-09-03T07:54:27.947Z,42.70
2022-09-03T07:56:56.897Z,42.70
2022-09-03T07:59:26.480Z,42.70
2022-09-03T08:01:55.157Z,42.70
2022-09-03T08:04:24.092Z,42.80
2022-09-03T08:06:55.950Z,42.80
2022-09-03T08:09:26.138Z,42.70
2022-09-03T08:11:54.740Z,42.70
2022-09-03T08:14:23.366Z,42.50
2022-09-03T08:16:52.062Z,42.50
2022-09-03T08:19:20.991Z,42.40
2022-09-03T08:21:49.721Z,42.50
2022-09-03T08:24:21.351Z,42.50
2022-09-03T08:26:52.735Z,42.50
2022-09-03T08:29:22.899Z,42.40
2022-09-03T08:31:52.102Z,42.40
2022-09-03T08:34:21.498Z,42.40
2022-09-03T08:36:50.539Z,42.50
2022-09-03T08:39:19.298Z,42.40
2022-09-03T08:42:11.966Z,42.20
2022-09-03T08:44:47.379Z,42.30
2022-09-03T08:47:22.965Z,42.40
2022-09-03T08:49:57.821Z,42.30
2022-09-03T08:52:35.039Z,42.30
2022-09-03T08:55:28.141Z,42.10
2022-09-03T08:58:04.841Z,42.10
2022-09-03T09:00:50.064Z,42.30
2022-09-03T09:03:55.065Z,42.30
2022-09-03T09:06:35.989Z,42.00
2022-09-03T09:09:18.596Z,42.60
2022-09-03T09:12:00.057Z,42.20
2022-09-03T09:14:39.609Z,42.10
2022-09-03T09:17:28.498Z,42.00
2022-09-03T09:20:08.414Z,42.00
2022-09-03T09:22:43.812Z,42.10
2022-09-03T09:25:21.366Z,42.10
2022-09-03T09:27:56.370Z,42.00
2022-09-03T09:30:27.587Z,41.80
2022-09-03T09:32:56.364Z,41.90
2022-09-03T09:35:27.232Z,41.80
2022-09-03T09:38:00.323Z,41.80
2022-09-03T09:40:33.924Z,41.90
2022-09-03T09:43:12.688Z,41.90
2022-09-03T09:45:45.301Z,41.80
2022-09-03T09:48:26.464Z,41.80
2022-09-03T09:51:07.291Z,41.80
2022-09-03T09:53:36.375Z,41.80
2022-09-03T09:56:05.799Z,41.80
2022-09-03T09:58:36.264Z,41.70
2022-09-03T10:01:14.130Z,42.50
2022-09-03T10:03:55.281Z,41.60
2022-09-03T10:06:43.967Z,41.50
2022-09-03T10:09:16.038Z,41.50
2022-09-03T10:11:48.016Z,41.40
2022-09-03T10:14:24.312Z,41.30
2022-09-03T10:17:03.806Z,41.20
2022-09-03T10:20:04.428Z,41.10
2022-09-03T10:22:56.925Z,41.10
2022-09-03T10:25:49.230Z,40.90
2022-09-03T10:28:50.155Z,41.00
2022-09-03T10:32:19.029Z,40.80
2022-09-03T10:35:12.439Z,40.90
2022-09-03T10:38:11.650Z,41.50
2022-09-03T10:41:26.018Z,41.00
2022-09-03T10:44:42.713Z,40.90
2022-09-03T10:48:30.798Z,40.80
2022-09-03T10:51:04.737Z,40.70
2022-09-03T10:53:53.582Z,40.70
2022-09-03T10:56:34.019Z,40.60
2022-09-03T10:59:28.524Z,40.50
2022-09-03T11:02:24.717Z,40.50
2022-09-03T11:05:09.827Z,40.50
2022-09-03T11:07:48.263Z,40.60
2022-09-03T11:10:33.321Z,40.70
2022-09-03T11:13:13.365Z,40.50
2022-09-03T11:15:50.938Z,40.50
2022-09-03T11:18:28.143Z,40.50
2022-09-03T11:21:07.642Z,40.60
2022-09-03T11:23:49.640Z,40.50
2022-09-03T11:26:32.120Z,40.30
2022-09-03T11:29:08.337Z,40.10
2022-09-03T11:31:57.981Z,40.00
2022-09-03T11:34:33.942Z,40.20
2022-09-03T11:37:23.185Z,40.30
2022-09-03T11:40:00.457Z,39.90
2022-09-03T11:42:37.424Z,40.10
2022-09-03T11:45:37.539Z,40.30
2022-09-03T11:48:30.747Z,40.30
2022-09-03T11:51:04.663Z,40.10
2022-09-03T11:53:39.077Z,40.00
2022-09-03T11:56:20.348Z,39.90
2022-09-03T11:59:09.640Z,39.80
2022-09-03T12:01:56.027Z,39.90
2022-09-03T12:04:39.287Z,39.60
2022-09-03T12:07:44.398Z,39.60
2022-09-03T12:10:51.239Z,39.30
2022-09-03T12:13:45.595Z,39.20
2022-09-03T12:16:48.776Z,39.30
2022-09-03T12:19:50.904Z,39.30
2022-09-03T12:22:25.347Z,39.40
2022-09-03T12:25:22.232Z,39.40
2022-09-03T12:28:17.577Z,39.50
2022-09-03T12:30:53.534Z,39.50
2022-09-03T12:33:34.554Z,39.40
2022-09-03T12:36:05.739Z,39.40
2022-09-03T12:39:10.308Z,39.40
2022-09-03T12:42:02.727Z,39.40
2022-09-03T12:44:42.213Z,39.40
2022-09-03T12:47:41.272Z,39.50
2022-09-03T12:50:13.225Z,39.60
2022-09-03T12:52:47.069Z,39.40
2022-09-03T12:55:33.598Z,39.40
2022-09-03T12:58:13.392Z,39.40
2022-09-03T13:00:54.483Z,39.40
2022-09-03T13:03:31.099Z,39.40
2022-09-03T13:06:11.369Z,39.40
2022-09-03T13:08:49.160Z,39.70
2022-09-03T13:11:24.594Z,39.70
2022-09-03T13:13:58.381Z,39.70
2022-09-03T13:17:07.358Z,39.60
2022-09-03T13:19:48.591Z,39.80
2022-09-03T13:22:26.706Z,39.80
2022-09-03T13:25:13.181Z,40.30
2022-09-03T13:27:52.903Z,39.80
2022-09-03T13:30:24.421Z,39.70
2022-09-03T13:33:03.002Z,39.80
2022-09-03T13:35:39.843Z,40.00
2022-09-03T13:38:25.242Z,40.00
2022-09-03T13:40:58.360Z,40.00
2022-09-03T13:43:36.627Z,40.00
2022-09-03T13:46:10.243Z,40.20
2022-09-03T13:49:02.190Z,40.30
2022-09-03T13:51:37.534Z,40.30
2022-09-03T13:54:30.972Z,40.40
2022-09-03T13:57:10.702Z,40.40
2022-09-03T13:59:51.870Z,40.40
2022-09-03T14:02:31.296Z,40.50
2022-09-03T14:05:11.406Z,40.60
2022-09-03T14:07:55.427Z,40.60
2022-09-03T14:10:42.773Z,40.40
2022-09-03T14:13:26.030Z,40.30
2022-09-03T14:16:07.410Z,40.40
2022-09-03T14:18:48.201Z,40.10
2022-09-03T14:21:24.045Z,40.10
2022-09-03T14:24:03.738Z,40.10
2022-09-03T14:26:39.398Z,40.20
2022-09-03T14:29:18.058Z,40.60
2022-09-03T14:32:14.026Z,39.90
2022-09-03T14:35:02.866Z,39.90
2022-09-03T14:38:36.119Z,39.70
2022-09-03T14:41:23.730Z,39.90
2022-09-03T14:44:29.535Z,40.00
2022-09-03T14:47:13.289Z,40.20
2022-09-03T14:50:17.789Z,40.10
2022-09-03T14:53:18.388Z,40.20
2022-09-03T14:56:11.476Z,40.20
2022-09-03T14:59:13.517Z,40.30
2022-09-03T15:01:45.375Z,40.40
2022-09-03T15:04:53.197Z,40.20
2022-09-03T15:07:35.497Z,40.10
2022-09-03T15:10:19.257Z,40.20
2022-09-03T15:12:53.656Z,40.10
2022-09-03T15:15:27.894Z,40.10
2022-09-03T15:18:05.794Z,40.80
2022-09-03T15:20:55.676Z,40.20
2022-09-03T15:23:57.775Z,40.00
2022-09-03T15:26:59.267Z,39.80
2022-09-03T15:29:41.184Z,40.00
2022-09-03T15:32:22.092Z,40.30
2022-09-03T15:35:05.919Z,40.50
2022-09-03T15:37:43.826Z,40.60
2022-09-03T15:40:30.123Z,41.10
2022-09-03T15:43:08.934Z,40.70
2022-09-03T15:46:30.430Z,40.60
2022-09-03T15:49:04.404Z,40.60
2022-09-03T15:51:37.690Z,40.50
2022-09-03T15:54:17.912Z,40.50
2022-09-03T15:56:56.596Z,40.50
2022-09-03T15:59:42.569Z,40.50
2022-09-03T16:02:18.631Z,40.50
2022-09-03T16:05:06.179Z,40.50
2022-09-03T16:08:06.063Z,40.50
2022-09-03T16:10:47.021Z,40.50
2022-09-03T16:13:37.603Z,40.50
2022-09-03T16:16:10.808Z,40.60
2022-09-03T16:18:57.891Z,40.50
2022-09-03T16:21:32.658Z,40.50
2022-09-03T16:24:06.738Z,40.50
2022-09-03T16:26:39.258Z,40.60
2022-09-03T16:29:16.240Z,40.50
2022-09-03T16:32:17.901Z,40.50
2022-09-03T16:35:04.997Z,40.50
2022-09-03T16:37:46.600Z,40.50
2022-09-03T16:40:26.758Z,40.50
2022-09-03T16:43:39.489Z,40.50
2022-09-03T16:46:40.550Z,40.50
2022-09-03T16:50:20.809Z,40.50
2022-09-03T16:53:30.144Z,40.50
2022-09-03T16:56:28.238Z,40.80
2022-09-03T17:00:31.354Z,40.50
2022-09-03T17:03:26.180Z,40.70
2022-09-03T17:06:51.589Z,40.90
2022-09-03T17:09:58.368Z,40.90
2022-09-03T17:12:42.962Z,40.90
2022-09-03T17:15:44.866Z,40.90
2022-09-03T17:19:11.828Z,40.90
2022-09-03T17:22:18.727Z,41.30
2022-09-03T17:25:08.727Z,41.30
2022-09-03T17:29:31.235Z,41.20
2022-09-03T17:31:30.114Z,41.40
2022-09-03T17:34:09.879Z,41.30
2022-09-03T17:37:10.077Z,41.50
2022-09-03T17:40:30.245Z,41.50
2022-09-03T17:43:37.484Z,41.90
2022-09-03T17:51:01.799Z,41.90
2022-09-03T17:53:55.515Z,41.90
2022-09-03T17:57:12.464Z,42.00
2022-09-03T18:01:55.923Z,42.20
2022-09-03T18:04:03.366Z,42.30
2022-09-03T18:07:25.157Z,42.30
2022-09-03T18:10:43.951Z,42.40
2022-09-03T18:13:45.926Z,42.20
2022-09-03T18:16:48.659Z,42.30
2022-09-03T18:20:02.668Z,42.40
2022-09-03T18:23:00.591Z,42.50
2022-09-03T18:26:16.177Z,42.50
2022-09-03T18:29:24.028Z,42.40
2022-09-03T18:32:40.703Z,42.50
2022-09-03T18:35:53.807Z,42.40
2022-09-03T18:39:31.681Z,42.50
2022-09-03T18:50:00.164Z,42.50
2022-09-03T18:53:08.091Z,42.30
2022-09-03T18:56:15.805Z,42.30
2022-09-03T18:59:35.543Z,42.40
2022-09-03T19:03:00.961Z,42.60
2022-09-03T19:06:17.297Z,42.70
2022-09-03T19:09:19.169Z,42.90
2022-09-03T19:12:21.847Z,43.30
2022-09-03T19:15:17.958Z,43.40
2022-09-03T19:18:29.845Z,43.70
2022-09-03T19:21:26.077Z,44.10
2022-09-03T19:24:20.118Z,44.50
2022-09-03T19:27:49.994Z,44.00
2022-09-03T19:30:29.223Z,44.20
2022-09-03T19:33:29.954Z,44.20
2022-09-03T19:36:28.014Z,44.40
2022-09-03T19:39:32.228Z,44.70
2022-09-03T19:42:30.856Z,44.70
2022-09-03T19:45:28.636Z,44.70
2022-09-03T19:48:27.780Z,44.70
2022-09-03T19:51:26.447Z,45.00
2022-09-03T19:54:15.077Z,45.10
2022-09-03T19:57:04.584Z,45.00
2022-09-03T19:59:56.254Z,45.00
2022-09-03T20:02:42.964Z,45.10
2022-09-03T20:05:35.845Z,45.10
2022-09-03T20:08:22.823Z,45.20
2022-09-03T20:10:54.943Z,45.30
2022-09-03T20:13:25.368Z,45.40
2022-09-03T20:16:03.001Z,45.50
2022-09-03T20:18:43.916Z,45.80
2022-09-03T20:21:20.650Z,45.80
2022-09-03T20:23:59.395Z,45.70
2022-09-03T20:26:45.191Z,45.90
2022-09-03T20:29:39.161Z,46.20
2022-09-03T20:32:15.083Z,46.00
2022-09-03T20:34:51.367Z,46.10
2022-09-03T20:37:30.121Z,46.20
2022-09-03T20:40:18.066Z,46.30
2022-09-03T20:43:33.294Z,46.40
2022-09-03T20:46:31.048Z,46.50
2022-09-03T20:49:09.404Z,46.40
2022-09-03T20:51:44.194Z,46.30
2022-09-03T20:54:15.799Z,46.40
2022-09-03T20:57:05.796Z,46.40
2022-09-03T20:59:48.241Z,46.80
2022-09-03T21:02:29.257Z,46.60
2022-09-03T21:05:12.381Z,46.80
2022-09-03T21:07:56.365Z,46.70
2022-09-03T21:10:33.795Z,46.70
2022-09-03T21:13:16.054Z,46.70
2022-09-03T21:15:57.185Z,46.90
2022-09-03T21:18:38.298Z,46.80
2022-09-03T21:21:18.140Z,46.80
2022-09-03T21:23:51.358Z,47.00
2022-09-03T21:26:26.083Z,46.80
2022-09-03T21:29:04.678Z,46.90
2022-09-03T21:31:39.430Z,47.00
2022-09-03T21:34:18.626Z,46.90
2022-09-03T21:36:49.213Z,47.00
2022-09-03T21:39:27.737Z,47.00
2022-09-03T21:42:04.752Z,47.10
2022-09-03T21:44:50.502Z,47.10
2022-09-03T21:47:21.325Z,47.20
2022-09-03T21:50:14.414Z,47.70
2022-09-03T21:52:53.554Z,47.90
2022-09-03T21:55:32.851Z,47.20
2022-09-03T21:58:20.384Z,47.70
2022-09-03T22:00:54.152Z,47.30
2022-09-03T22:03:22.976Z,47.10
2022-09-03T22:06:02.166Z,47.10
2022-09-03T22:08:37.263Z,47.20
2022-09-03T22:11:13.361Z,47.30
2022-09-03T22:13:50.509Z,47.30
2022-09-03T22:16:24.698Z,47.40
2022-09-03T22:18:55.466Z,47.30
2022-09-03T22:21:35.964Z,47.20
2022-09-03T22:24:23.319Z,47.50
2022-09-03T22:26:59.215Z,47.40
2022-09-03T22:29:42.062Z,47.30
2022-09-03T22:32:25.595Z,47.50
2022-09-03T22:35:19.221Z,47.40
2022-09-03T22:38:04.120Z,47.60
2022-09-03T22:40:40.952Z,47.50
2022-09-03T22:43:35.237Z,47.90
2022-09-03T22:46:10.181Z,47.70
2022-09-03T22:49:02.661Z,47.50
2022-09-03T22:51:48.384Z,47.70
2022-09-03T22:54:35.483Z,47.70
2022-09-03T22:57:06.077Z,47.70
2022-09-03T22:59:40.356Z,47.70
2022-09-03T23:02:16.968Z,47.80
2022-09-03T23:04:55.986Z,47.80
2022-09-03T23:07:35.017Z,48.00
2022-09-03T23:10:10.876Z,47.90
2022-09-03T23:12:46.242Z,47.80
2022-09-03T23:15:20.718Z,47.80
2022-09-03T23:17:56.025Z,47.90
2022-09-03T23:20:27.630Z,48.60
2022-09-03T23:23:04.008Z,47.90
2022-09-03T23:25:37.243Z,47.90
2022-09-03T23:28:12.578Z,47.90
2022-09-03T23:30:41.752Z,48.00
2022-09-03T23:33:10.423Z,47.90
2022-09-03T23:35:50.220Z,47.90
2022-09-03T23:38:29.126Z,48.20
2022-09-03T23:41:04.632Z,48.10
2022-09-03T23:44:05.459Z,48.10
2022-09-03T23:46:43.355Z,48.20
2022-09-03T23:49:34.433Z,48.20
2022-09-03T23:52:33.902Z,48.30
2022-09-03T23:55:20.943Z,48.10
2022-09-03T23:58:02.461Z,48.10
